sensor_id;sensor_type;location;lat;lon;timestamp;pressure;altitude;pressure_sealevel;temperature;humidity
73941;BME280;62294;48.554;10.202;2022-11-13T00:00:57;97160.59;;;3.43;96.67
73941;BME280;62294;48.554;10.202;2022-11-13T00:03:24;97161.91;;;3.30;96.81
73941;BME280;62294;48.554;10.202;2022-11-13T00:06:00;97161.03;;;3.39;97.74
73941;BME280;62294;48.554;10.202;2022-11-13T00:08:27;97149.00;;;3.36;97.03
73941;BME280;62294;48.554;10.202;2022-11-13T00:11:02;97149.41;;;3.41;97.23
73941;BME280;62294;48.554;10.202;2022-11-13T00:13:29;97150.22;;;3.42;97.10
73941;BME280;62294;48.554;10.202;2022-11-13T00:16:02;97150.97;;;3.52;96.84
73941;BME280;62294;48.554;10.202;2022-11-13T00:18:29;97151.56;;;3.46;97.54
73941;BME280;62294;48.554;10.202;2022-11-13T00:20:57;97141.13;;;3.54;96.85
73941;BME280;62294;48.554;10.202;2022-11-13T00:23:31;97144.53;;;3.46;96.68
73941;BME280;62294;48.554;10.202;2022-11-13T00:26:11;97137.88;;;3.25;96.85
73941;BME280;62294;48.554;10.202;2022-11-13T00:28:38;97132.63;;;3.25;96.95
73941;BME280;62294;48.554;10.202;2022-11-13T00:31:07;97126.63;;;3.32;97.52
73941;BME280;62294;48.554;10.202;2022-11-13T00:33:34;97138.50;;;3.54;97.14
73941;BME280;62294;48.554;10.202;2022-11-13T00:36:22;97140.63;;;3.68;96.19
73941;BME280;62294;48.554;10.202;2022-11-13T00:38:52;97130.78;;;3.70;96.20
73941;BME280;62294;48.554;10.202;2022-11-13T00:41:19;97130.31;;;3.75;96.17
73941;BME280;62294;48.554;10.202;2022-11-13T00:43:45;97125.63;;;3.78;95.13
73941;BME280;62294;48.554;10.202;2022-11-13T00:46:12;97125.47;;;3.62;95.33
73941;BME280;62294;48.554;10.202;2022-11-13T00:48:39;97121.38;;;3.50;95.24
73941;BME280;62294;48.554;10.202;2022-11-13T00:51:05;97115.41;;;3.40;95.58
73941;BME280;62294;48.554;10.202;2022-11-13T00:53:32;97113.13;;;3.45;95.87
73941;BME280;62294;48.554;10.202;2022-11-13T00:55:58;97104.78;;;3.32;96.29
73941;BME280;62294;48.554;10.202;2022-11-13T00:58:25;97109.41;;;3.20;96.17
73941;BME280;62294;48.554;10.202;2022-11-13T01:00:53;97103.13;;;3.31;96.36
73941;BME280;62294;48.554;10.202;2022-11-13T01:03:20;97105.31;;;3.35;96.83
73941;BME280;62294;48.554;10.202;2022-11-13T01:05:46;97097.50;;;3.26;96.13
73941;BME280;62294;48.554;10.202;2022-11-13T01:08:14;97093.03;;;3.09;96.68
73941;BME280;62294;48.554;10.202;2022-11-13T01:10:44;97087.09;;;3.07;96.78
73941;BME280;62294;48.554;10.202;2022-11-13T01:13:18;97079.50;;;3.04;97.07
73941;BME280;62294;48.554;10.202;2022-11-13T01:15:45;97090.88;;;3.22;97.06
73941;BME280;62294;48.554;10.202;2022-11-13T01:18:12;97084.81;;;3.21;96.72
73941;BME280;62294;48.554;10.202;2022-11-13T01:20:39;97089.84;;;3.15;96.90
73941;BME280;62294;48.554;10.202;2022-11-13T01:23:06;97092.13;;;3.00;97.35
73941;BME280;62294;48.554;10.202;2022-11-13T01:25:34;97091.69;;;3.05;97.75
73941;BME280;62294;48.554;10.202;2022-11-13T01:28:01;97080.56;;;3.11;97.38
73941;BME280;62294;48.554;10.202;2022-11-13T01:30:28;97081.78;;;3.16;97.07
73941;BME280;62294;48.554;10.202;2022-11-13T01:32:54;97071.91;;;3.28;96.64
73941;BME280;62294;48.554;10.202;2022-11-13T01:35:21;97075.09;;;3.22;96.92
73941;BME280;62294;48.554;10.202;2022-11-13T01:37:47;97067.69;;;3.17;96.80
73941;BME280;62294;48.554;10.202;2022-11-13T01:40:14;97072.47;;;3.22;96.50
73941;BME280;62294;48.554;10.202;2022-11-13T01:42:41;97073.63;;;3.37;96.56
73941;BME280;62294;48.554;10.202;2022-11-13T01:48:12;97058.91;;;3.26;96.65
73941;BME280;62294;48.554;10.202;2022-11-13T01:50:39;97057.19;;;3.35;96.81
73941;BME280;62294;48.554;10.202;2022-11-13T01:53:06;97044.28;;;3.24;96.31
73941;BME280;62294;48.554;10.202;2022-11-13T01:55:33;97046.75;;;3.25;97.24
73941;BME280;62294;48.554;10.202;2022-11-13T01:58:01;97041.88;;;3.30;96.94
73941;BME280;62294;48.554;10.202;2022-11-13T02:00:28;97039.22;;;3.13;97.39
73941;BME280;62294;48.554;10.202;2022-11-13T02:02:54;97044.34;;;2.97;97.54
73941;BME280;62294;48.554;10.202;2022-11-13T02:05:21;97036.25;;;3.08;97.47
73941;BME280;62294;48.554;10.202;2022-11-13T02:07:48;97035.78;;;3.30;97.52
73941;BME280;62294;48.554;10.202;2022-11-13T02:10:14;97043.75;;;3.38;96.69
73941;BME280;62294;48.554;10.202;2022-11-13T02:12:43;97033.31;;;3.11;96.19
73941;BME280;62294;48.554;10.202;2022-11-13T02:15:12;97025.56;;;3.27;96.55
73941;BME280;62294;48.554;10.202;2022-11-13T02:17:47;97018.75;;;3.34;96.06
73941;BME280;62294;48.554;10.202;2022-11-13T02:20:15;97019.13;;;3.39;95.51
73941;BME280;62294;48.554;10.202;2022-11-13T02:23:01;97011.25;;;3.39;95.61
73941;BME280;62294;48.554;10.202;2022-11-13T02:25:32;97017.63;;;3.19;96.17
73941;BME280;62294;48.554;10.202;2022-11-13T02:27:58;97013.13;;;3.11;96.34
73941;BME280;62294;48.554;10.202;2022-11-13T02:30:32;97002.53;;;3.21;96.30
73941;BME280;62294;48.554;10.202;2022-11-13T02:32:59;96995.78;;;3.01;96.22
73941;BME280;62294;48.554;10.202;2022-11-13T02:37:57;96996.00;;;2.90;96.97
73941;BME280;62294;48.554;10.202;2022-11-13T02:40:24;96996.47;;;3.03;96.75
73941;BME280;62294;48.554;10.202;2022-11-13T02:42:51;96993.69;;;3.04;96.73
73941;BME280;62294;48.554;10.202;2022-11-13T02:45:17;96984.75;;;2.97;97.21
73941;BME280;62294;48.554;10.202;2022-11-13T02:47:44;96981.38;;;3.05;96.79
73941;BME280;62294;48.554;10.202;2022-11-13T02:50:11;96984.38;;;3.10;97.11
73941;BME280;62294;48.554;10.202;2022-11-13T02:52:37;96987.41;;;3.15;96.61
73941;BME280;62294;48.554;10.202;2022-11-13T02:55:04;96993.22;;;2.91;97.25
73941;BME280;62294;48.554;10.202;2022-11-13T02:57:31;96980.09;;;3.09;96.54
73941;BME280;62294;48.554;10.202;2022-11-13T02:59:58;96978.91;;;3.21;96.45
73941;BME280;62294;48.554;10.202;2022-11-13T03:02:24;96981.59;;;3.29;96.46
73941;BME280;62294;48.554;10.202;2022-11-13T03:04:51;96982.34;;;3.39;95.80
73941;BME280;62294;48.554;10.202;2022-11-13T03:07:37;96977.16;;;3.29;95.74
73941;BME280;62294;48.554;10.202;2022-11-13T03:10:04;96974.25;;;3.32;95.88
73941;BME280;62294;48.554;10.202;2022-11-13T03:12:32;96968.78;;;3.26;95.88
73941;BME280;62294;48.554;10.202;2022-11-13T03:14:59;96969.13;;;3.31;95.94
73941;BME280;62294;48.554;10.202;2022-11-13T03:17:25;96974.69;;;3.28;95.38
73941;BME280;62294;48.554;10.202;2022-11-13T03:19:52;96963.16;;;3.21;95.56
73941;BME280;62294;48.554;10.202;2022-11-13T03:22:18;96963.06;;;3.30;95.58
73941;BME280;62294;48.554;10.202;2022-11-13T03:24:44;96957.47;;;3.08;95.54
73941;BME280;62294;48.554;10.202;2022-11-13T03:27:11;96967.81;;;2.92;96.27
73941;BME280;62294;48.554;10.202;2022-11-13T03:29:37;96966.00;;;3.10;96.67
73941;BME280;62294;48.554;10.202;2022-11-13T03:32:04;96959.75;;;3.11;95.94
73941;BME280;62294;48.554;10.202;2022-11-13T03:34:31;96955.03;;;3.14;96.33
73941;BME280;62294;48.554;10.202;2022-11-13T03:36:57;96948.06;;;3.05;96.10
73941;BME280;62294;48.554;10.202;2022-11-13T03:39:24;96955.72;;;2.99;95.83
73941;BME280;62294;48.554;10.202;2022-11-13T03:41:51;96958.03;;;3.02;96.08
73941;BME280;62294;48.554;10.202;2022-11-13T03:44:17;96954.91;;;2.80;97.09
73941;BME280;62294;48.554;10.202;2022-11-13T03:46:43;96954.63;;;3.01;97.11
73941;BME280;62294;48.554;10.202;2022-11-13T03:49:10;96950.75;;;3.13;97.04
73941;BME280;62294;48.554;10.202;2022-11-13T03:51:36;96937.03;;;3.19;95.88
73941;BME280;62294;48.554;10.202;2022-11-13T03:54:03;96938.88;;;3.27;95.90
73941;BME280;62294;48.554;10.202;2022-11-13T03:56:30;96937.78;;;3.12;95.75
73941;BME280;62294;48.554;10.202;2022-11-13T03:58:56;96934.03;;;3.14;96.43
73941;BME280;62294;48.554;10.202;2022-11-13T04:01:23;96929.03;;;3.03;96.24
73941;BME280;62294;48.554;10.202;2022-11-13T04:03:49;96932.00;;;3.08;96.54
73941;BME280;62294;48.554;10.202;2022-11-13T04:06:15;96930.16;;;3.01;96.35
73941;BME280;62294;48.554;10.202;2022-11-13T04:08:43;96932.75;;;2.83;96.87
73941;BME280;62294;48.554;10.202;2022-11-13T04:11:11;96919.50;;;2.84;96.91
73941;BME280;62294;48.554;10.202;2022-11-13T04:13:38;96919.34;;;2.86;97.43
73941;BME280;62294;48.554;10.202;2022-11-13T04:16:05;96919.72;;;2.91;97.07
73941;BME280;62294;48.554;10.202;2022-11-13T04:18:31;96910.84;;;2.74;96.94
73941;BME280;62294;48.554;10.202;2022-11-13T04:21:03;96905.16;;;2.79;97.24
73941;BME280;62294;48.554;10.202;2022-11-13T04:23:30;96906.59;;;2.73;97.25
73941;BME280;62294;48.554;10.202;2022-11-13T04:25:56;96900.28;;;2.66;97.53
73941;BME280;62294;48.554;10.202;2022-11-13T04:28:23;96891.06;;;2.80;97.58
73941;BME280;62294;48.554;10.202;2022-11-13T04:30:52;96889.94;;;2.82;96.84
73941;BME280;62294;48.554;10.202;2022-11-13T04:33:19;96891.91;;;2.80;97.24
73941;BME280;62294;48.554;10.202;2022-11-13T04:35:45;96879.75;;;2.79;97.13
73941;BME280;62294;48.554;10.202;2022-11-13T04:38:11;96884.03;;;2.80;97.45
73941;BME280;62294;48.554;10.202;2022-11-13T04:40:38;96876.59;;;2.94;96.89
73941;BME280;62294;48.554;10.202;2022-11-13T04:43:06;96881.97;;;2.74;97.29
73941;BME280;62294;48.554;10.202;2022-11-13T04:45:32;96875.59;;;2.77;97.44
73941;BME280;62294;48.554;10.202;2022-11-13T04:47:59;96876.28;;;2.79;97.98
73941;BME280;62294;48.554;10.202;2022-11-13T04:50:26;96888.06;;;2.57;98.69
73941;BME280;62294;48.554;10.202;2022-11-13T04:52:53;96878.97;;;2.69;98.01
73941;BME280;62294;48.554;10.202;2022-11-13T04:55:19;96877.78;;;2.81;97.84
73941;BME280;62294;48.554;10.202;2022-11-13T04:57:46;96885.88;;;2.70;97.39
73941;BME280;62294;48.554;10.202;2022-11-13T05:00:12;96886.19;;;2.67;97.52
73941;BME280;62294;48.554;10.202;2022-11-13T05:02:39;96876.06;;;2.72;96.83
73941;BME280;62294;48.554;10.202;2022-11-13T05:05:06;96876.00;;;2.82;96.93
73941;BME280;62294;48.554;10.202;2022-11-13T05:07:32;96871.03;;;2.97;96.42
73941;BME280;62294;48.554;10.202;2022-11-13T05:09:59;96880.84;;;2.95;96.35
73941;BME280;62294;48.554;10.202;2022-11-13T05:12:26;96878.97;;;3.05;96.20
73941;BME280;62294;48.554;10.202;2022-11-13T05:14:52;96866.22;;;3.10;95.88
73941;BME280;62294;48.554;10.202;2022-11-13T05:17:18;96876.63;;;3.02;96.00
73941;BME280;62294;48.554;10.202;2022-11-13T05:19:44;96867.34;;;3.07;96.40
73941;BME280;62294;48.554;10.202;2022-11-13T05:22:11;96867.03;;;2.93;96.03
73941;BME280;62294;48.554;10.202;2022-11-13T05:24:37;96855.38;;;3.13;96.40
73941;BME280;62294;48.554;10.202;2022-11-13T05:27:04;96859.38;;;3.17;95.71
73941;BME280;62294;48.554;10.202;2022-11-13T05:29:30;96868.63;;;2.85;95.39
73941;BME280;62294;48.554;10.202;2022-11-13T05:31:57;96855.50;;;2.85;96.37
73941;BME280;62294;48.554;10.202;2022-11-13T05:34:24;96857.19;;;2.69;96.96
73941;BME280;62294;48.554;10.202;2022-11-13T05:36:50;96841.78;;;2.92;96.59
73941;BME280;62294;48.554;10.202;2022-11-13T05:39:17;96844.31;;;2.83;96.80
73941;BME280;62294;48.554;10.202;2022-11-13T05:41:43;96834.72;;;2.74;97.16
73941;BME280;62294;48.554;10.202;2022-11-13T05:44:10;96836.00;;;2.88;97.16
73941;BME280;62294;48.554;10.202;2022-11-13T05:46:36;96830.66;;;2.98;96.83
73941;BME280;62294;48.554;10.202;2022-11-13T05:49:03;96829.56;;;2.65;97.14
73941;BME280;62294;48.554;10.202;2022-11-13T05:51:32;96826.22;;;2.55;98.33
73941;BME280;62294;48.554;10.202;2022-11-13T05:53:59;96837.59;;;2.63;98.12
73941;BME280;62294;48.554;10.202;2022-11-13T05:56:28;96839.44;;;2.88;98.08
73941;BME280;62294;48.554;10.202;2022-11-13T05:58:56;96840.19;;;2.81;96.54
73941;BME280;62294;48.554;10.202;2022-11-13T06:01:28;96842.00;;;2.63;96.54
73941;BME280;62294;48.554;10.202;2022-11-13T06:03:57;96843.75;;;2.54;97.07
73941;BME280;62294;48.554;10.202;2022-11-13T06:06:25;96846.13;;;2.65;97.23
73941;BME280;62294;48.554;10.202;2022-11-13T06:08:53;96850.41;;;2.49;96.66
73941;BME280;62294;48.554;10.202;2022-11-13T06:11:23;96846.81;;;2.67;97.10
73941;BME280;62294;48.554;10.202;2022-11-13T06:13:50;96851.91;;;2.51;96.91
73941;BME280;62294;48.554;10.202;2022-11-13T06:16:26;96839.38;;;2.63;97.33
73941;BME280;62294;48.554;10.202;2022-11-13T06:18:55;96851.31;;;2.75;96.47
73941;BME280;62294;48.554;10.202;2022-11-13T06:21:26;96829.56;;;2.82;96.04
73941;BME280;62294;48.554;10.202;2022-11-13T06:23:52;96827.00;;;2.91;95.91
73941;BME280;62294;48.554;10.202;2022-11-13T06:26:22;96828.56;;;2.83;95.96
73941;BME280;62294;48.554;10.202;2022-11-13T06:28:49;96825.09;;;2.57;96.75
73941;BME280;62294;48.554;10.202;2022-11-13T06:31:18;96816.84;;;2.35;97.98
73941;BME280;62294;48.554;10.202;2022-11-13T06:33:45;96828.63;;;2.48;98.15
73941;BME280;62294;48.554;10.202;2022-11-13T06:36:17;96815.63;;;2.64;97.66
73941;BME280;62294;48.554;10.202;2022-11-13T06:38:44;96824.50;;;2.46;97.80
73941;BME280;62294;48.554;10.202;2022-11-13T06:41:12;96815.94;;;2.61;97.96
73941;BME280;62294;48.554;10.202;2022-11-13T06:43:40;96808.88;;;2.62;97.32
73941;BME280;62294;48.554;10.202;2022-11-13T06:46:13;96804.00;;;2.49;98.46
73941;BME280;62294;48.554;10.202;2022-11-13T06:48:41;96806.63;;;2.49;98.46
73941;BME280;62294;48.554;10.202;2022-11-13T06:51:12;96810.84;;;2.42;97.74
73941;BME280;62294;48.554;10.202;2022-11-13T06:53:39;96797.13;;;2.48;98.03
73941;BME280;62294;48.554;10.202;2022-11-13T06:56:06;96798.19;;;2.55;97.68
73941;BME280;62294;48.554;10.202;2022-11-13T06:58:32;96802.19;;;2.67;97.49
73941;BME280;62294;48.554;10.202;2022-11-13T07:01:07;96803.25;;;2.74;97.68
73941;BME280;62294;48.554;10.202;2022-11-13T07:03:34;96802.34;;;2.66;97.78
73941;BME280;62294;48.554;10.202;2022-11-13T07:06:04;96808.97;;;2.52;97.81
73941;BME280;62294;48.554;10.202;2022-11-13T07:08:31;96790.03;;;2.84;97.01
73941;BME280;62294;48.554;10.202;2022-11-13T07:10:58;96789.63;;;2.97;96.68
73941;BME280;62294;48.554;10.202;2022-11-13T07:13:26;96785.66;;;2.93;96.62
73941;BME280;62294;48.554;10.202;2022-11-13T07:15:53;96791.72;;;2.93;96.70
73941;BME280;62294;48.554;10.202;2022-11-13T07:18:19;96783.75;;;2.77;96.48
73941;BME280;62294;48.554;10.202;2022-11-13T07:20:49;96792.63;;;2.41;97.91
73941;BME280;62294;48.554;10.202;2022-11-13T07:23:16;96791.06;;;2.48;98.19
73941;BME280;62294;48.554;10.202;2022-11-13T07:25:42;96784.06;;;2.56;97.50
73941;BME280;62294;48.554;10.202;2022-11-13T07:28:09;96793.13;;;2.79;97.30
73941;BME280;62294;48.554;10.202;2022-11-13T07:30:35;96787.81;;;2.97;96.38
73941;BME280;62294;48.554;10.202;2022-11-13T07:33:02;96787.31;;;2.94;95.80
73941;BME280;62294;48.554;10.202;2022-11-13T07:35:29;96782.66;;;2.87;96.01
73941;BME280;62294;48.554;10.202;2022-11-13T07:37:56;96764.75;;;3.09;95.25
73941;BME280;62294;48.554;10.202;2022-11-13T07:40:24;96766.25;;;2.85;95.97
73941;BME280;62294;48.554;10.202;2022-11-13T07:42:58;96763.50;;;2.69;95.82
73941;BME280;62294;48.554;10.202;2022-11-13T07:45:26;96758.06;;;2.88;96.29
73941;BME280;62294;48.554;10.202;2022-11-13T07:47:59;96751.38;;;2.94;96.19
73941;BME280;62294;48.554;10.202;2022-11-13T07:50:28;96752.63;;;3.08;95.68
73941;BME280;62294;48.554;10.202;2022-11-13T07:52:59;96747.66;;;2.79;95.21
73941;BME280;62294;48.554;10.202;2022-11-13T07:55:27;96739.38;;;2.66;96.32
73941;BME280;62294;48.554;10.202;2022-11-13T07:57:58;96737.16;;;2.79;95.63
73941;BME280;62294;48.554;10.202;2022-11-13T08:00:25;96733.47;;;2.90;95.63
73941;BME280;62294;48.554;10.202;2022-11-13T08:02:53;96736.13;;;2.72;95.67
73941;BME280;62294;48.554;10.202;2022-11-13T08:05:19;96742.66;;;3.19;96.23
73941;BME280;62294;48.554;10.202;2022-11-13T08:07:49;96735.53;;;3.45;95.21
73941;BME280;62294;48.554;10.202;2022-11-13T08:10:18;96730.09;;;3.39;94.64
73941;BME280;62294;48.554;10.202;2022-11-13T08:12:45;96734.28;;;3.57;94.08
73941;BME280;62294;48.554;10.202;2022-11-13T08:15:12;96745.81;;;3.65;93.60
73941;BME280;62294;48.554;10.202;2022-11-13T08:17:39;96734.41;;;3.56;93.56
73941;BME280;62294;48.554;10.202;2022-11-13T08:20:07;96738.47;;;3.76;92.01
73941;BME280;62294;48.554;10.202;2022-11-13T08:22:34;96733.63;;;4.38;92.73
73941;BME280;62294;48.554;10.202;2022-11-13T08:25:01;96742.00;;;4.33;91.01
73941;BME280;62294;48.554;10.202;2022-11-13T08:27:27;96731.09;;;5.00;90.90
73941;BME280;62294;48.554;10.202;2022-11-13T08:29:54;96723.84;;;5.02;89.70
73941;BME280;62294;48.554;10.202;2022-11-13T08:32:20;96713.03;;;5.36;89.46
73941;BME280;62294;48.554;10.202;2022-11-13T08:34:48;96717.00;;;5.32;86.23
73941;BME280;62294;48.554;10.202;2022-11-13T08:37:14;96713.53;;;5.70;87.72
73941;BME280;62294;48.554;10.202;2022-11-13T08:39:41;96717.16;;;6.31;87.83
73941;BME280;62294;48.554;10.202;2022-11-13T08:42:08;96716.81;;;6.71;82.81
73941;BME280;62294;48.554;10.202;2022-11-13T08:44:34;96712.97;;;6.59;83.10
73941;BME280;62294;48.554;10.202;2022-11-13T08:47:00;96699.19;;;6.49;80.49
73941;BME280;62294;48.554;10.202;2022-11-13T08:49:27;96710.66;;;6.79;80.44
73941;BME280;62294;48.554;10.202;2022-11-13T08:51:54;96717.50;;;6.51;78.55
73941;BME280;62294;48.554;10.202;2022-11-13T08:54:20;96717.16;;;6.54;80.66
73941;BME280;62294;48.554;10.202;2022-11-13T08:56:47;96721.22;;;5.88;82.29
73941;BME280;62294;48.554;10.202;2022-11-13T08:59:21;96738.72;;;6.34;82.53
73941;BME280;62294;48.554;10.202;2022-11-13T09:01:49;96730.69;;;7.25;80.25
73941;BME280;62294;48.554;10.202;2022-11-13T09:04:16;96734.25;;;7.97;79.45
73941;BME280;62294;48.554;10.202;2022-11-13T09:06:42;96721.47;;;8.22;75.21
73941;BME280;62294;48.554;10.202;2022-11-13T09:09:09;96718.00;;;8.36;72.35
73941;BME280;62294;48.554;10.202;2022-11-13T09:11:35;96722.06;;;8.81;75.52
73941;BME280;62294;48.554;10.202;2022-11-13T09:14:01;96721.94;;;8.89;73.21
73941;BME280;62294;48.554;10.202;2022-11-13T09:16:28;96731.94;;;8.66;71.92
73941;BME280;62294;48.554;10.202;2022-11-13T09:18:55;96724.59;;;8.89;71.16
73941;BME280;62294;48.554;10.202;2022-11-13T09:21:21;96720.84;;;9.04;72.16
73941;BME280;62294;48.554;10.202;2022-11-13T09:23:48;96725.22;;;8.91;69.30
73941;BME280;62294;48.554;10.202;2022-11-13T09:26:14;96718.81;;;8.36;71.06
73941;BME280;62294;48.554;10.202;2022-11-13T09:28:40;96710.34;;;8.90;71.72
73941;BME280;62294;48.554;10.202;2022-11-13T09:31:07;96716.41;;;8.63;70.02
73941;BME280;62294;48.554;10.202;2022-11-13T09:33:34;96712.25;;;8.75;71.22
73941;BME280;62294;48.554;10.202;2022-11-13T09:36:01;96702.44;;;9.24;72.38
73941;BME280;62294;48.554;10.202;2022-11-13T09:38:27;96697.63;;;9.13;71.70
73941;BME280;62294;48.554;10.202;2022-11-13T09:41:02;96702.88;;;9.34;70.39
73941;BME280;62294;48.554;10.202;2022-11-13T09:43:47;96694.78;;;9.42;66.56
73941;BME280;62294;48.554;10.202;2022-11-13T09:49:28;96693.22;;;8.43;71.06
73941;BME280;62294;48.554;10.202;2022-11-13T09:52:02;96699.00;;;9.02;71.14
73941;BME280;62294;48.554;10.202;2022-11-13T09:54:32;96686.41;;;9.45;69.13
73941;BME280;62294;48.554;10.202;2022-11-13T09:57:24;96694.91;;;9.75;67.04
73941;BME280;62294;48.554;10.202;2022-11-13T09:59:59;96699.81;;;9.03;68.55
73941;BME280;62294;48.554;10.202;2022-11-13T10:11:01;96672.19;;;7.49;74.45
73941;BME280;62294;48.554;10.202;2022-11-13T10:16:28;96659.16;;;6.60;75.59
73941;BME280;62294;48.554;10.202;2022-11-13T10:21:52;96655.34;;;6.92;76.20
73941;BME280;62294;48.554;10.202;2022-11-13T10:24:44;96658.66;;;7.08;76.25
73941;BME280;62294;48.554;10.202;2022-11-13T10:27:13;96672.31;;;6.97;76.55
73941;BME280;62294;48.554;10.202;2022-11-13T10:29:40;96666.94;;;7.20;77.15
73941;BME280;62294;48.554;10.202;2022-11-13T10:32:21;96667.81;;;6.69;77.03
73941;BME280;62294;48.554;10.202;2022-11-13T10:35:08;96655.25;;;6.85;77.90
73941;BME280;62294;48.554;10.202;2022-11-13T10:38:00;96654.28;;;6.86;78.39
73941;BME280;62294;48.554;10.202;2022-11-13T10:40:37;96656.00;;;7.23;77.75
73941;BME280;62294;48.554;10.202;2022-11-13T10:43:24;96636.88;;;7.06;76.29
73941;BME280;62294;48.554;10.202;2022-11-13T10:45:55;96626.47;;;6.76;77.88
73941;BME280;62294;48.554;10.202;2022-11-13T10:48:25;96621.75;;;7.00;76.55
73941;BME280;62294;48.554;10.202;2022-11-13T10:51:01;96622.19;;;7.19;76.91
73941;BME280;62294;48.554;10.202;2022-11-13T10:53:38;96608.53;;;7.00;77.77
73941;BME280;62294;48.554;10.202;2022-11-13T10:58:58;96589.72;;;7.10;77.23
73941;BME280;62294;48.554;10.202;2022-11-13T11:01:25;96592.69;;;7.00;76.96
73941;BME280;62294;48.554;10.202;2022-11-13T11:03:52;96582.78;;;7.24;77.52
73941;BME280;62294;48.554;10.202;2022-11-13T11:06:18;96574.16;;;7.51;76.28
73941;BME280;62294;48.554;10.202;2022-11-13T11:08:45;96562.84;;;7.57;75.37
73941;BME280;62294;48.554;10.202;2022-11-13T11:11:15;96567.00;;;7.66;75.67
73941;BME280;62294;48.554;10.202;2022-11-13T11:15:25;96558.44;;;7.64;75.67
73941;BME280;62294;48.554;10.202;2022-11-13T11:17:22;96544.75;;;8.03;74.93
73941;BME280;62294;48.554;10.202;2022-11-13T11:19:59;96543.78;;;8.10;74.27
73941;BME280;62294;48.554;10.202;2022-11-13T11:22:29;96522.59;;;8.10;73.29
73941;BME280;62294;48.554;10.202;2022-11-13T11:27:57;96521.06;;;7.95;73.72
73941;BME280;62294;48.554;10.202;2022-11-13T11:30:32;96513.94;;;7.95;73.51
73941;BME280;62294;48.554;10.202;2022-11-13T11:33:20;96516.34;;;7.90;73.72
73941;BME280;62294;48.554;10.202;2022-11-13T11:36:02;96513.97;;;8.02;73.61
73941;BME280;62294;48.554;10.202;2022-11-13T11:38:36;96504.94;;;8.17;73.87
73941;BME280;62294;48.554;10.202;2022-11-13T11:41:11;96490.31;;;8.21;73.12
73941;BME280;62294;48.554;10.202;2022-11-13T11:43:45;96490.91;;;8.17;73.04
73941;BME280;62294;48.554;10.202;2022-11-13T11:46:19;96500.22;;;8.13;72.74
73941;BME280;62294;48.554;10.202;2022-11-13T11:48:48;96483.88;;;8.03;73.55
73941;BME280;62294;48.554;10.202;2022-11-13T11:51:29;96471.69;;;8.08;73.61
73941;BME280;62294;48.554;10.202;2022-11-13T11:56:47;96461.38;;;8.47;73.26
73941;BME280;62294;48.554;10.202;2022-11-13T12:04:34;96434.56;;;8.70;73.88
73941;BME280;62294;48.554;10.202;2022-11-13T12:07:25;96436.63;;;8.75;73.43
73941;BME280;62294;48.554;10.202;2022-11-13T12:10:13;96448.53;;;8.92;72.74
73941;BME280;62294;48.554;10.202;2022-11-13T12:13:10;96451.34;;;8.84;71.33
73941;BME280;62294;48.554;10.202;2022-11-13T12:15:48;96443.56;;;8.76;72.33
73941;BME280;62294;48.554;10.202;2022-11-13T12:28:56;96419.19;;;9.00;72.26
73941;BME280;62294;48.554;10.202;2022-11-13T12:36:47;96382.91;;;9.07;71.31
73941;BME280;62294;48.554;10.202;2022-11-13T12:39:29;96386.16;;;9.09;71.59
73941;BME280;62294;48.554;10.202;2022-11-13T12:42:32;96380.47;;;9.12;72.18
73941;BME280;62294;48.554;10.202;2022-11-13T12:45:12;96384.94;;;9.18;71.42
73941;BME280;62294;48.554;10.202;2022-11-13T12:47:42;96381.91;;;9.21;71.51
73941;BME280;62294;48.554;10.202;2022-11-13T12:50:29;96374.94;;;9.20;71.95
73941;BME280;62294;48.554;10.202;2022-11-13T12:53:07;96369.84;;;9.12;72.46
73941;BME280;62294;48.554;10.202;2022-11-13T12:55:36;96372.28;;;9.07;71.84
73941;BME280;62294;48.554;10.202;2022-11-13T12:58:09;96375.16;;;9.12;71.87
73941;BME280;62294;48.554;10.202;2022-11-13T13:00:39;96382.06;;;9.00;72.30
73941;BME280;62294;48.554;10.202;2022-11-13T13:05:56;96376.28;;;8.77;73.12
73941;BME280;62294;48.554;10.202;2022-11-13T13:13:48;96373.88;;;8.82;73.02
73941;BME280;62294;48.554;10.202;2022-11-13T13:16:23;96363.66;;;8.79;72.75
73941;BME280;62294;48.554;10.202;2022-11-13T13:18:50;96355.53;;;8.87;73.40
73941;BME280;62294;48.554;10.202;2022-11-13T13:21:18;96357.56;;;8.85;72.98
73941;BME280;62294;48.554;10.202;2022-11-13T13:23:48;96369.78;;;8.86;72.79
73941;BME280;62294;48.554;10.202;2022-11-13T13:26:20;96381.59;;;8.83;72.63
73941;BME280;62294;48.554;10.202;2022-11-13T13:28:52;96378.97;;;8.83;72.73
73941;BME280;62294;48.554;10.202;2022-11-13T13:42:54;96374.19;;;8.59;73.36
73941;BME280;62294;48.554;10.202;2022-11-13T13:48:11;96361.59;;;8.68;73.27
73941;BME280;62294;48.554;10.202;2022-11-13T13:50:43;96374.25;;;8.72;73.15
73941;BME280;62294;48.554;10.202;2022-11-13T13:53:13;96368.28;;;8.57;73.89
73941;BME280;62294;48.554;10.202;2022-11-13T13:55:47;96362.00;;;8.65;74.00
73941;BME280;62294;48.554;10.202;2022-11-13T13:58:19;96372.41;;;8.66;74.28
73941;BME280;62294;48.554;10.202;2022-11-13T14:00:59;96365.28;;;8.67;74.15
73941;BME280;62294;48.554;10.202;2022-11-13T14:03:46;96373.59;;;8.57;75.11
73941;BME280;62294;48.554;10.202;2022-11-13T14:06:20;96383.81;;;8.60;74.64
73941;BME280;62294;48.554;10.202;2022-11-13T14:08:47;96392.09;;;8.44;75.43
73941;BME280;62294;48.554;10.202;2022-11-13T14:11:24;96383.75;;;8.53;75.18
73941;BME280;62294;48.554;10.202;2022-11-13T14:14:09;96382.38;;;8.57;74.73
73941;BME280;62294;48.554;10.202;2022-11-13T14:16:50;96383.53;;;8.48;74.99
73941;BME280;62294;48.554;10.202;2022-11-13T14:19:18;96375.75;;;8.40;75.42
73941;BME280;62294;48.554;10.202;2022-11-13T14:21:46;96370.03;;;8.30;75.96
73941;BME280;62294;48.554;10.202;2022-11-13T14:24:34;96361.31;;;8.49;75.42
73941;BME280;62294;48.554;10.202;2022-11-13T14:27:04;96362.69;;;8.32;75.30
73941;BME280;62294;48.554;10.202;2022-11-13T14:29:46;96368.75;;;8.26;76.09